createdAt,value
2017-02-05T00:00:47.873Z,2.54
2017-02-05T00:01:47.589Z,2.55
2017-02-05T00:02:47.665Z,2.54
2017-02-05T00:03:47.495Z,2.55
2017-02-05T00:04:47.612Z,2.51
2017-02-05T00:05:47.201Z,2.51
2017-02-05T00:06:47.553Z,2.52
2017-02-05T00:07:47.552Z,2.52
2017-02-05T00:08:47.474Z,2.51
2017-02-05T00:09:47.004Z,2.54
2017-02-05T00:10:47.444Z,2.55
2017-02-05T00:11:47.489Z,2.59
2017-02-05T00:12:47.361Z,2.6
2017-02-05T00:13:47.346Z,2.55
2017-02-05T00:14:46.533Z,2.55
2017-02-05T00:15:47.311Z,2.54
2017-02-05T00:16:47.069Z,2.59
2017-02-05T00:17:47.280Z,2.55
2017-02-05T00:18:47.267Z,2.51
2017-02-05T00:19:47.252Z,2.59
2017-02-05T00:20:47.017Z,2.59
2017-02-05T00:21:47.407Z,2.59
2017-02-05T00:22:47.418Z,2.55
2017-02-05T00:23:47.334Z,2.59
2017-02-05T00:24:47.436Z,2.55
2017-02-05T00:25:47.403Z,2.59
2017-02-05T00:26:47.455Z,2.69
2017-02-05T00:27:47.386Z,2.73
2017-02-05T00:28:47.281Z,2.78
2017-02-05T00:29:46.701Z,2.73
2017-02-05T00:30:47.199Z,2.81
2017-02-05T00:31:47.102Z,2.83
2017-02-05T00:32:47.069Z,2.83
2017-02-05T00:33:47.194Z,2.85
2017-02-05T00:34:47.095Z,2.93
2017-02-05T00:35:47.196Z,2.95
2017-02-05T00:36:47.219Z,2.91
2017-02-05T00:37:47.191Z,2.91
2017-02-05T00:38:47.174Z,2.96
2017-02-05T00:39:46.700Z,2.9
2017-02-05T00:40:47.196Z,2.9
2017-02-05T00:41:47.223Z,2.98
2017-02-05T00:42:47.179Z,2.98
2017-02-05T00:43:47.053Z,2.91
2017-02-05T00:44:47.008Z,2.91
2017-02-05T00:45:46.944Z,2.95
2017-02-05T00:46:46.979Z,2.95
2017-02-05T00:47:46.964Z,2.96
2017-02-05T00:48:46.931Z,2.87
2017-02-05T00:49:46.930Z,2.99
2017-02-05T00:50:46.909Z,2.99
2017-02-05T00:51:46.883Z,2.95
2017-02-05T00:52:46.870Z,2.88
2017-02-05T00:53:46.818Z,2.99
2017-02-05T00:54:46.729Z,2.9
2017-02-05T00:55:46.312Z,2.9
2017-02-05T00:56:46.693Z,2.83
2017-02-05T00:57:46.676Z,2.84
2017-02-05T00:58:46.664Z,2.85
2017-02-05T00:59:46.644Z,2.8
2017-02-05T01:00:46.714Z,2.84
2017-02-05T01:01:46.723Z,2.91
2017-02-05T01:02:46.869Z,2.96
2017-02-05T01:03:46.418Z,2.88
2017-02-05T01:04:46.339Z,3.01
2017-02-05T01:05:46.823Z,3.03
2017-02-05T01:06:46.788Z,3.02
2017-02-05T01:07:46.805Z,2.9
2017-02-05T01:08:46.907Z,3.01
2017-02-05T01:09:46.590Z,3.01
2017-02-05T01:10:46.648Z,3.01
2017-02-05T01:11:46.520Z,2.98
2017-02-05T01:12:46.547Z,2.99
2017-02-05T01:13:46.040Z,2.96
2017-02-05T01:14:46.422Z,3.01
2017-02-05T01:15:46.411Z,3.03
2017-02-05T01:16:46.392Z,2.95
2017-02-05T01:17:46.433Z,3.06
2017-02-05T01:18:46.515Z,2.96
2017-02-05T01:19:46.103Z,3.01
2017-02-05T01:20:46.237Z,2.98
2017-02-05T01:21:46.201Z,2.88
2017-02-05T01:22:46.546Z,2.93
2017-02-05T01:23:46.680Z,2.93
2017-02-05T01:24:46.566Z,2.9
2017-02-05T01:25:46.441Z,2.93
2017-02-05T01:26:46.372Z,2.93
2017-02-05T01:27:46.378Z,2.95
2017-02-05T01:28:46.343Z,2.91
2017-02-05T01:29:46.331Z,2.93
2017-02-05T01:30:46.345Z,2.91
2017-02-05T01:31:46.266Z,2.96
2017-02-05T01:32:46.235Z,2.91
2017-02-05T01:33:45.746Z,2.81
2017-02-05T01:34:46.261Z,2.85
2017-02-05T01:35:46.234Z,2.78
2017-02-05T01:36:46.227Z,2.78
2017-02-05T01:37:46.092Z,2.67
2017-02-05T01:38:46.069Z,2.78
2017-02-05T01:39:46.050Z,2.78
2017-02-05T01:40:46.030Z,2.78
2017-02-05T01:41:46.067Z,2.83
2017-02-05T01:42:46.006Z,2.78
2017-02-05T01:43:45.987Z,2.77
2017-02-05T01:44:46.188Z,2.73
2017-02-05T01:45:46.080Z,2.73
2017-02-05T01:46:45.945Z,2.77
2017-02-05T01:47:46.200Z,2.69
2017-02-05T01:48:46.136Z,2.78
2017-02-05T01:49:46.019Z,2.72
2017-02-05T01:50:46.143Z,2.67
2017-02-05T01:51:46.138Z,2.6
2017-02-05T01:52:46.222Z,2.69
2017-02-05T01:53:45.835Z,2.63
2017-02-05T01:54:45.821Z,2.62
2017-02-05T01:55:45.811Z,2.66
2017-02-05T01:56:45.789Z,2.6
2017-02-05T01:57:45.776Z,2.6
2017-02-05T01:58:45.760Z,2.69
2017-02-05T01:59:45.742Z,2.72
2017-02-05T02:00:45.729Z,2.66
2017-02-05T02:01:45.712Z,2.7
2017-02-05T02:02:45.697Z,2.67
2017-02-05T02:03:45.683Z,2.69
2017-02-05T02:04:45.666Z,2.73
2017-02-05T02:05:51.421Z,2.73
2017-02-05T02:06:45.639Z,2.78
2017-02-05T02:07:45.623Z,2.81
2017-02-05T02:08:45.603Z,2.7
2017-02-05T02:09:45.592Z,2.8
2017-02-05T02:10:45.575Z,2.8
2017-02-05T02:11:45.166Z,2.81
2017-02-05T02:12:45.544Z,2.77
2017-02-05T02:13:45.133Z,2.84
2017-02-05T02:14:45.121Z,2.91
2017-02-05T02:15:45.507Z,2.85
2017-02-05T02:16:45.486Z,2.9
2017-02-05T02:17:45.474Z,2.85
2017-02-05T02:18:45.453Z,2.81
2017-02-05T02:19:45.077Z,2.8
2017-02-05T02:20:45.426Z,2.95
2017-02-05T02:21:45.408Z,2.87
2017-02-05T02:22:45.392Z,2.83
2017-02-05T02:23:45.419Z,2.9
2017-02-05T02:24:45.363Z,2.83
2017-02-05T02:25:45.349Z,2.9
2017-02-05T02:26:45.334Z,2.87
2017-02-05T02:27:45.318Z,2.83
2017-02-05T02:28:45.305Z,2.83
2017-02-05T02:29:45.291Z,2.81
2017-02-05T02:30:45.274Z,2.81
2017-02-05T02:31:45.258Z,2.83
2017-02-05T02:32:45.242Z,2.88
2017-02-05T02:33:45.231Z,2.84
2017-02-05T02:34:45.215Z,2.88
2017-02-05T02:35:45.199Z,2.84
2017-02-05T02:36:45.196Z,2.93
2017-02-05T02:37:45.168Z,2.83
2017-02-05T02:38:45.153Z,2.88
2017-02-05T02:39:45.138Z,2.77
2017-02-05T02:40:44.727Z,2.9
2017-02-05T02:41:45.109Z,2.77
2017-02-05T02:42:45.096Z,2.85
2017-02-05T02:43:45.077Z,2.87
2017-02-05T02:44:45.065Z,2.81
2017-02-05T02:45:45.048Z,2.83
2017-02-05T02:46:45.037Z,2.84
2017-02-05T02:47:45.018Z,2.95
2017-02-05T02:48:45.004Z,2.9
2017-02-05T02:49:44.984Z,2.81
2017-02-05T02:50:44.972Z,2.91
2017-02-05T02:51:44.959Z,2.78
2017-02-05T02:52:44.942Z,2.85
2017-02-05T02:53:44.929Z,2.78
2017-02-05T02:54:44.548Z,2.84
2017-02-05T02:55:44.895Z,2.81
2017-02-05T02:56:44.886Z,2.84
2017-02-05T02:57:44.869Z,2.81
2017-02-05T02:58:44.953Z,2.8
2017-02-05T02:59:44.440Z,2.78
2017-02-05T03:00:44.824Z,2.83
2017-02-05T03:01:44.809Z,2.8
2017-02-05T03:02:44.794Z,2.88
2017-02-05T03:03:44.775Z,2.83
2017-02-05T03:04:44.766Z,2.8
2017-02-05T03:05:44.746Z,2.87
2017-02-05T03:06:44.735Z,2.85
2017-02-05T03:07:44.324Z,2.8
2017-02-05T03:08:44.705Z,2.8
2017-02-05T03:09:44.724Z,2.8
2017-02-05T03:10:44.670Z,2.78
2017-02-05T03:11:44.656Z,2.8
2017-02-05T03:12:44.646Z,2.83
2017-02-05T03:13:44.625Z,2.83
2017-02-05T03:14:44.613Z,2.76
2017-02-05T03:15:44.199Z,2.77
2017-02-05T03:16:44.585Z,2.76
2017-02-05T03:17:44.564Z,2.73
2017-02-05T03:18:44.552Z,2.8
2017-02-05T03:19:44.538Z,2.73
2017-02-05T03:20:44.524Z,2.81
2017-02-05T03:21:44.505Z,2.73
2017-02-05T03:22:44.491Z,2.72
2017-02-05T03:23:44.471Z,2.72
2017-02-05T03:24:44.461Z,2.66
2017-02-05T03:25:44.444Z,2.72
2017-02-05T03:26:44.033Z,2.7
2017-02-05T03:27:44.412Z,2.6
2017-02-05T03:28:44.003Z,2.77
2017-02-05T03:29:44.383Z,2.66
2017-02-05T03:30:43.969Z,2.72
2017-02-05T03:31:44.352Z,2.65
2017-02-05T03:32:44.337Z,2.72
2017-02-05T03:33:43.932Z,2.63
2017-02-05T03:34:44.308Z,2.62
2017-02-05T03:35:44.298Z,2.65
2017-02-05T03:36:44.281Z,2.8
2017-02-05T03:37:44.270Z,2.65
2017-02-05T03:38:44.245Z,2.69
2017-02-05T03:39:44.234Z,2.72
2017-02-05T03:40:44.218Z,2.76
2017-02-05T03:41:44.202Z,2.67
2017-02-05T03:42:44.190Z,2.67
2017-02-05T03:43:44.177Z,2.65
2017-02-05T03:44:44.160Z,2.73
2017-02-05T03:45:44.145Z,2.66
2017-02-05T03:46:44.124Z,2.72
2017-02-05T03:47:44.118Z,2.62
2017-02-05T03:48:44.139Z,2.62
2017-02-05T03:49:44.112Z,2.67
2017-02-05T03:50:44.066Z,2.65
2017-02-05T03:51:44.059Z,2.63
2017-02-05T03:52:44.040Z,2.67
2017-02-05T03:53:43.624Z,2.69
2017-02-05T03:54:44.009Z,2.62
2017-02-05T03:55:44.027Z,2.66
2017-02-05T03:56:43.579Z,2.63
2017-02-05T03:57:43.962Z,2.66
2017-02-05T03:58:43.993Z,2.62
2017-02-05T03:59:43.933Z,2.6
2017-02-05T04:00:43.916Z,2.55
2017-02-05T04:01:43.901Z,2.52
2017-02-05T04:02:43.884Z,2.55
2017-02-05T04:03:43.477Z,2.62
2017-02-05T04:04:43.857Z,2.6
2017-02-05T04:05:43.840Z,2.55
2017-02-05T04:06:43.829Z,2.51
2017-02-05T04:07:43.812Z,2.59
2017-02-05T04:08:43.792Z,2.7
2017-02-05T04:09:43.779Z,2.55
2017-02-05T04:10:43.766Z,2.58
2017-02-05T04:11:43.807Z,2.6
2017-02-05T04:12:43.735Z,2.65
2017-02-05T04:13:43.717Z,2.66
2017-02-05T04:14:43.306Z,2.67
2017-02-05T04:15:43.690Z,2.65
2017-02-05T04:16:43.704Z,2.66
2017-02-05T04:17:43.660Z,2.66
2017-02-05T04:18:43.643Z,2.6
2017-02-05T04:19:43.625Z,2.54
2017-02-05T04:20:43.614Z,2.55
2017-02-05T04:21:43.593Z,2.58
2017-02-05T04:22:43.578Z,2.54
2017-02-05T04:23:43.565Z,2.55
2017-02-05T04:24:43.546Z,2.58
2017-02-05T04:25:43.533Z,2.59
2017-02-05T04:26:43.522Z,2.63
2017-02-05T04:27:43.512Z,2.6
2017-02-05T04:28:43.090Z,2.55
2017-02-05T04:29:43.476Z,2.58
2017-02-05T04:30:43.062Z,2.58
2017-02-05T04:31:43.443Z,2.55
2017-02-05T04:32:43.427Z,2.54
2017-02-05T04:33:43.414Z,2.6
2017-02-05T04:34:43.402Z,2.58
2017-02-05T04:35:43.385Z,2.58
2017-02-05T04:36:43.370Z,2.58
2017-02-05T04:37:43.355Z,2.6
2017-02-05T04:38:43.361Z,2.63
2017-02-05T04:39:42.925Z,2.55
2017-02-05T04:40:43.307Z,2.52
2017-02-05T04:41:43.292Z,2.55
2017-02-05T04:42:43.278Z,2.58
2017-02-05T04:43:43.262Z,2.59
2017-02-05T04:44:43.248Z,2.59
2017-02-05T04:45:43.235Z,2.55
2017-02-05T04:46:43.218Z,2.6
2017-02-05T04:47:43.202Z,2.59
2017-02-05T04:48:43.186Z,2.6
2017-02-05T04:49:43.171Z,2.55
2017-02-05T04:50:43.156Z,2.55
2017-02-05T04:51:43.138Z,2.54
2017-02-05T04:52:43.127Z,2.49
2017-02-05T04:53:42.784Z,2.59
2017-02-05T04:54:43.096Z,2.54
2017-02-05T04:55:43.082Z,2.59
2017-02-05T04:56:42.449Z,2.6
2017-02-05T04:57:42.428Z,2.6
2017-02-05T04:58:42.405Z,2.63
2017-02-05T04:59:42.380Z,2.52
2017-02-05T05:00:43.003Z,2.59
2017-02-05T05:01:42.987Z,2.59
2017-02-05T05:02:42.983Z,2.52
2017-02-05T05:03:42.958Z,2.55
2017-02-05T05:04:42.948Z,2.52
2017-02-05T05:05:42.924Z,2.62
2017-02-05T05:06:42.514Z,2.54
2017-02-05T05:07:42.902Z,2.54
2017-02-05T05:08:42.883Z,2.54
2017-02-05T05:09:42.869Z,2.55
2017-02-05T05:10:42.890Z,2.55
2017-02-05T05:11:42.837Z,2.59
2017-02-05T05:12:42.422Z,2.55
2017-02-05T05:13:42.805Z,2.55
2017-02-05T05:14:42.788Z,2.54
2017-02-05T05:15:42.774Z,2.59
2017-02-05T05:16:42.761Z,2.59
2017-02-05T05:17:42.746Z,2.55
2017-02-05T05:18:42.734Z,2.54
2017-02-05T05:19:42.715Z,2.54
2017-02-05T05:20:42.300Z,2.63
2017-02-05T05:21:42.687Z,2.69
2017-02-05T05:22:42.666Z,2.62
2017-02-05T05:23:42.659Z,2.55
2017-02-05T05:24:42.639Z,2.54
2017-02-05T05:25:42.621Z,2.58
2017-02-05T05:26:42.608Z,2.58
2017-02-05T05:27:42.595Z,2.54
2017-02-05T05:28:42.584Z,2.6
2017-02-05T05:29:42.176Z,2.69
2017-02-05T05:30:42.553Z,2.66
2017-02-05T05:31:42.544Z,2.63
2017-02-05T05:32:42.525Z,2.52
2017-02-05T05:33:42.507Z,2.59
2017-02-05T05:34:42.099Z,2.66
2017-02-05T05:35:42.482Z,2.6
2017-02-05T05:36:42.068Z,2.62
2017-02-05T05:37:42.455Z,2.55
2017-02-05T05:38:42.433Z,2.55
2017-02-05T05:39:42.024Z,2.62
2017-02-05T05:40:42.409Z,2.54
2017-02-05T05:41:42.392Z,2.54
2017-02-05T05:42:42.371Z,2.59
2017-02-05T05:43:42.363Z,2.54
2017-02-05T05:44:42.341Z,2.72
2017-02-05T05:45:42.332Z,2.58
2017-02-05T05:46:42.314Z,2.55
2017-02-05T05:47:41.902Z,2.54
2017-02-05T05:48:42.284Z,2.49
2017-02-05T05:49:41.874Z,2.55
2017-02-05T05:50:42.255Z,2.49
2017-02-05T05:51:42.238Z,2.54
2017-02-05T05:52:41.828Z,2.54
2017-02-05T05:53:42.210Z,2.52
2017-02-05T05:54:42.192Z,2.55
2017-02-05T05:55:42.177Z,2.59
2017-02-05T05:56:42.160Z,2.55
2017-02-05T05:57:42.151Z,2.55
2017-02-05T05:58:42.131Z,2.62
2017-02-05T05:59:41.726Z,2.55
2017-02-05T06:00:41.704Z,2.54
2017-02-05T06:01:42.085Z,2.58
2017-02-05T06:02:42.069Z,2.55
2017-02-05T06:03:42.059Z,2.58
2017-02-05T06:04:41.647Z,2.6
2017-02-05T06:05:41.629Z,2.58
2017-02-05T06:06:41.611Z,2.55
2017-02-05T06:07:41.594Z,2.59
2017-02-05T06:08:41.581Z,2.48
2017-02-05T06:09:41.566Z,2.44
2017-02-05T06:10:41.951Z,2.54
2017-02-05T06:11:41.536Z,2.62
2017-02-05T06:12:41.922Z,2.62
2017-02-05T06:13:41.503Z,2.59
2017-02-05T06:14:41.889Z,2.55
2017-02-05T06:15:41.472Z,2.48
2017-02-05T06:16:41.858Z,2.51
2017-02-05T06:17:41.441Z,2.52
2017-02-05T06:18:41.831Z,2.44
2017-02-05T06:19:41.810Z,2.58
2017-02-05T06:20:41.796Z,2.45
2017-02-05T06:21:41.388Z,2.47
2017-02-05T06:22:41.769Z,2.48
2017-02-05T06:23:41.747Z,2.44
2017-02-05T06:24:41.342Z,2.47
2017-02-05T06:25:41.724Z,2.4
2017-02-05T06:26:41.716Z,2.33
2017-02-05T06:27:41.689Z,2.45
2017-02-05T06:28:41.670Z,2.42
2017-02-05T06:29:41.657Z,2.38
2017-02-05T06:30:41.646Z,2.44
2017-02-05T06:31:41.625Z,2.36
2017-02-05T06:32:41.615Z,2.42
2017-02-05T06:33:41.596Z,2.29
2017-02-05T06:34:41.584Z,2.34
2017-02-05T06:35:41.571Z,2.34
2017-02-05T06:36:41.552Z,2.41
2017-02-05T06:37:41.539Z,2.36
2017-02-05T06:38:41.118Z,2.38
2017-02-05T06:39:41.512Z,2.31
2017-02-05T06:40:41.094Z,2.4
2017-02-05T06:41:41.075Z,2.4
2017-02-05T06:42:41.101Z,2.41
2017-02-05T06:43:41.047Z,2.4
2017-02-05T06:44:41.435Z,2.34
2017-02-05T06:45:41.413Z,2.38
2017-02-05T06:46:41.004Z,2.36
2017-02-05T06:47:40.986Z,2.4
2017-02-05T06:48:41.408Z,2.33
2017-02-05T06:49:40.958Z,2.38
2017-02-05T06:50:41.337Z,2.41
2017-02-05T06:51:41.319Z,2.3
2017-02-05T06:52:41.304Z,2.34
2017-02-05T06:53:41.292Z,2.38
2017-02-05T06:54:41.274Z,2.38
2017-02-05T06:55:41.267Z,2.31
2017-02-05T06:56:41.246Z,2.36
2017-02-05T06:57:41.228Z,2.33
2017-02-05T06:58:40.815Z,2.44
2017-02-05T06:59:41.200Z,2.4
2017-02-05T07:00:41.182Z,2.38
2017-02-05T07:01:41.171Z,2.34
2017-02-05T07:02:41.155Z,2.31
2017-02-05T07:03:41.175Z,2.36
2017-02-05T07:04:40.723Z,2.44
2017-02-05T07:05:41.103Z,2.42
2017-02-05T07:06:41.091Z,2.48
2017-02-05T07:07:41.078Z,2.44
2017-02-05T07:08:41.349Z,2.42
2017-02-05T07:09:41.145Z,2.38
2017-02-05T07:10:41.031Z,2.41
2017-02-05T07:11:41.018Z,2.45
2017-02-05T07:12:40.600Z,2.47
2017-02-05T07:13:40.985Z,2.42
2017-02-05T07:14:40.970Z,2.48
2017-02-05T07:15:40.956Z,2.44
2017-02-05T07:16:40.937Z,2.45
2017-02-05T07:17:40.920Z,2.47
2017-02-05T07:18:40.506Z,2.48
2017-02-05T07:19:40.900Z,2.4
2017-02-05T07:20:40.879Z,2.45
2017-02-05T07:21:40.870Z,2.44
2017-02-05T07:22:40.450Z,2.51
2017-02-05T07:23:40.437Z,2.49
2017-02-05T07:24:40.823Z,2.38
2017-02-05T07:25:40.801Z,2.4
2017-02-05T07:26:40.786Z,2.55
2017-02-05T07:27:40.768Z,2.54
2017-02-05T07:28:40.755Z,2.54
2017-02-05T07:29:40.741Z,2.52
2017-02-05T07:30:40.723Z,2.58
2017-02-05T07:31:40.708Z,2.59
2017-02-05T07:32:40.298Z,2.55
2017-02-05T07:33:40.283Z,2.54
2017-02-05T07:34:40.664Z,2.58
2017-02-05T07:35:40.702Z,2.55
2017-02-05T07:36:40.236Z,2.58
2017-02-05T07:37:40.620Z,2.59
2017-02-05T07:38:40.604Z,2.6
2017-02-05T07:39:40.591Z,2.55
2017-02-05T07:40:40.576Z,2.55
2017-02-05T07:41:40.556Z,2.58
2017-02-05T07:42:40.544Z,2.55
2017-02-05T07:43:40.530Z,2.58
2017-02-05T07:44:40.514Z,2.58
2017-02-05T07:45:40.509Z,2.58
2017-02-05T07:46:40.088Z,2.49
2017-02-05T07:47:40.469Z,2.6
2017-02-05T07:48:40.453Z,2.58
2017-02-05T07:49:40.446Z,2.65
2017-02-05T07:50:40.022Z,2.6
2017-02-05T07:51:40.409Z,2.65
2017-02-05T07:52:40.391Z,2.63
2017-02-05T07:53:40.374Z,2.63
2017-02-05T07:54:39.964Z,2.54
2017-02-05T07:55:40.348Z,2.62
2017-02-05T07:56:40.333Z,2.59
2017-02-05T07:57:39.923Z,2.6
2017-02-05T07:58:40.301Z,2.69
2017-02-05T07:59:39.888Z,2.7
2017-02-05T08:00:40.270Z,2.69
2017-02-05T08:01:40.256Z,2.59
2017-02-05T08:02:40.242Z,2.69
2017-02-05T08:03:40.228Z,2.65
2017-02-05T08:04:39.809Z,2.6
2017-02-05T08:05:39.404Z,2.59
2017-02-05T08:06:40.182Z,2.65
2017-02-05T08:07:40.165Z,2.7
2017-02-05T08:08:40.149Z,2.66
2017-02-05T08:09:40.139Z,2.66
2017-02-05T08:10:40.121Z,2.73
2017-02-05T08:11:41.174Z,2.69
2017-02-05T08:12:39.693Z,2.81
2017-02-05T08:13:39.681Z,2.8
2017-02-05T08:14:40.058Z,2.72
2017-02-05T08:15:39.698Z,2.8
2017-02-05T08:16:40.034Z,2.87
2017-02-05T08:17:40.015Z,2.85
2017-02-05T08:18:40.063Z,2.85
2017-02-05T08:19:39.988Z,2.78
2017-02-05T08:20:39.970Z,2.87
2017-02-05T08:21:39.556Z,2.87
2017-02-05T08:22:39.956Z,2.8
2017-02-05T08:23:39.966Z,2.87
2017-02-05T08:24:39.511Z,2.81
2017-02-05T08:25:39.947Z,2.84
2017-02-05T08:26:39.870Z,2.93
2017-02-05T08:27:39.855Z,2.8
2017-02-05T08:28:39.837Z,2.8
2017-02-05T08:29:39.429Z,2.81
2017-02-05T08:30:39.809Z,2.87
2017-02-05T08:31:39.398Z,2.83
2017-02-05T08:32:39.779Z,2.9
2017-02-05T08:33:39.364Z,2.91
2017-02-05T08:34:39.403Z,2.99
2017-02-05T08:35:39.733Z,2.96
2017-02-05T08:36:39.715Z,3.02
2017-02-05T08:37:39.704Z,3.08
2017-02-05T08:38:39.713Z,3.09
2017-02-05T08:39:39.275Z,3.09
2017-02-05T08:40:39.661Z,3.05
2017-02-05T08:41:39.246Z,3.06
2017-02-05T08:42:39.630Z,3.11
2017-02-05T08:43:39.221Z,3.14
2017-02-05T08:44:39.598Z,3.13
2017-02-05T08:45:39.589Z,3.11
2017-02-05T08:46:39.571Z,3.21
2017-02-05T08:47:39.560Z,3.17
2017-02-05T08:48:39.584Z,3.05
2017-02-05T08:49:39.533Z,3.05
2017-02-05T08:50:39.512Z,3.06
2017-02-05T08:51:39.500Z,3.11
2017-02-05T08:52:39.484Z,3.03
2017-02-05T08:53:39.473Z,3.08
2017-02-05T08:54:39.453Z,3.09
2017-02-05T08:55:39.441Z,3.08
2017-02-05T08:56:39.423Z,3.11
2017-02-05T08:57:39.408Z,3.05
2017-02-05T08:58:39.396Z,3.09
2017-02-05T08:59:39.381Z,3.13
2017-02-05T09:00:39.365Z,3.09
2017-02-05T09:01:39.353Z,3.2
2017-02-05T09:02:38.940Z,3.03
2017-02-05T09:03:39.325Z,3.02
2017-02-05T09:04:39.308Z,3.06
2017-02-05T09:05:39.291Z,3.05
2017-02-05T09:06:39.275Z,3.08
2017-02-05T09:07:39.264Z,3.08
2017-02-05T09:08:39.253Z,3.13
2017-02-05T09:09:39.231Z,3.03
2017-02-05T09:10:39.217Z,3.02
2017-02-05T09:11:39.202Z,3.14
2017-02-05T09:12:39.188Z,3.03
2017-02-05T09:13:39.176Z,3.05
2017-02-05T09:14:39.162Z,3.09
2017-02-05T09:15:38.743Z,3.11
2017-02-05T09:16:38.736Z,3.03
2017-02-05T09:17:39.114Z,3.14
2017-02-05T09:18:39.103Z,3.11
2017-02-05T09:19:39.095Z,3.17
2017-02-05T09:20:39.074Z,3.19
2017-02-05T09:21:39.057Z,3.21
2017-02-05T09:22:39.045Z,3.19
2017-02-05T09:23:39.026Z,3.23
2017-02-05T09:24:39.013Z,3.35
2017-02-05T09:25:39.001Z,3.3
2017-02-05T09:26:38.982Z,3.35
2017-02-05T09:27:38.971Z,3.43
2017-02-05T09:28:38.954Z,3.49
2017-02-05T09:29:38.941Z,3.54
2017-02-05T09:30:38.927Z,3.46
2017-02-05T09:31:38.514Z,3.49
2017-02-05T09:32:38.502Z,3.46
2017-02-05T09:33:38.888Z,3.56
2017-02-05T09:34:38.866Z,3.51
2017-02-05T09:35:38.854Z,3.48
2017-02-05T09:36:38.842Z,3.53
2017-02-05T09:37:38.825Z,3.51
2017-02-05T09:38:38.414Z,3.51
2017-02-05T09:39:38.797Z,3.53
2017-02-05T09:40:38.782Z,3.45
2017-02-05T09:41:38.780Z,3.56
2017-02-05T09:42:38.752Z,3.46
2017-02-05T09:43:38.736Z,3.42
2017-02-05T09:44:38.739Z,3.48
2017-02-05T09:45:38.710Z,3.39
2017-02-05T09:46:38.696Z,3.48
2017-02-05T09:47:38.680Z,3.48
2017-02-05T09:48:38.664Z,3.45
2017-02-05T09:49:38.253Z,3.46
2017-02-05T09:50:38.639Z,3.4
2017-02-05T09:51:38.624Z,3.43
2017-02-05T09:52:38.612Z,3.56
2017-02-05T09:53:38.596Z,3.43
2017-02-05T09:54:38.580Z,3.51
2017-02-05T09:55:38.172Z,3.48
2017-02-05T09:56:38.554Z,3.54
2017-02-05T09:57:38.548Z,3.56
2017-02-05T09:58:38.521Z,3.56
2017-02-05T09:59:38.509Z,3.71
2017-02-05T10:00:38.094Z,3.69
2017-02-05T10:01:38.481Z,3.66
2017-02-05T10:02:38.467Z,3.84
2017-02-05T10:03:38.452Z,3.84
2017-02-05T10:04:38.438Z,3.9
2017-02-05T10:05:38.424Z,4
2017-02-05T10:06:38.406Z,3.94
2017-02-05T10:07:38.395Z,4.07
2017-02-05T10:08:38.378Z,4.15
2017-02-05T10:09:38.367Z,4.17
2017-02-05T10:10:38.355Z,4.18
2017-02-05T10:11:38.341Z,4.2
2017-02-05T10:12:38.326Z,4.2
2017-02-05T10:13:38.314Z,4.24
2017-02-05T10:14:38.299Z,4.33
2017-02-05T10:15:38.282Z,4.33
2017-02-05T10:16:38.271Z,4.26
2017-02-05T10:17:38.256Z,4.3
2017-02-05T10:18:38.242Z,4.42
2017-02-05T10:19:38.231Z,4.42
2017-02-05T10:20:38.215Z,4.51
2017-02-05T10:21:38.201Z,4.48
2017-02-05T10:22:38.188Z,4.57
2017-02-05T10:23:38.170Z,4.58
2017-02-05T10:24:38.163Z,4.6
2017-02-05T10:25:38.149Z,4.65
2017-02-05T10:26:38.132Z,4.64
2017-02-05T10:27:38.123Z,4.69
2017-02-05T10:28:38.106Z,4.65
2017-02-05T10:29:37.693Z,4.85
2017-02-05T10:30:38.120Z,4.94
2017-02-05T10:31:38.086Z,4.88
2017-02-05T10:32:38.053Z,4.98
2017-02-05T10:33:38.042Z,5.03
2017-02-05T10:34:37.630Z,5.12
2017-02-05T10:35:38.015Z,5.12
2017-02-05T10:36:38.004Z,5.2
2017-02-05T10:37:37.589Z,5.13
2017-02-05T10:38:37.974Z,5.16
2017-02-05T10:39:37.572Z,5.12
2017-02-05T10:40:37.949Z,5.09
2017-02-05T10:41:37.940Z,5.2
2017-02-05T10:42:37.935Z,5.09
2017-02-05T10:43:37.911Z,5.13
2017-02-05T10:44:37.899Z,5.13
2017-02-05T10:45:37.887Z,5.1
2017-02-05T10:46:37.872Z,5.08
2017-02-05T10:47:37.467Z,5.06
2017-02-05T10:48:37.052Z,5.06
2017-02-05T10:49:37.834Z,5.06
2017-02-05T10:50:37.822Z,5.03
2017-02-05T10:51:37.811Z,5.06
2017-02-05T10:52:37.801Z,5.06
2017-02-05T10:53:37.786Z,5.05
2017-02-05T10:54:37.788Z,5.08
2017-02-05T10:55:37.359Z,5.18
2017-02-05T10:56:37.749Z,5.18
2017-02-05T10:57:37.733Z,5.12
2017-02-05T10:58:37.738Z,5.16
2017-02-05T10:59:37.702Z,5.16
2017-02-05T11:00:37.697Z,5.24
2017-02-05T11:01:37.682Z,5.15
2017-02-05T11:02:37.670Z,5.13
2017-02-05T11:03:37.659Z,5.16
2017-02-05T11:04:37.649Z,5.15
2017-02-05T11:05:37.678Z,5.12
2017-02-05T11:06:37.619Z,5.13
2017-02-05T11:07:37.605Z,5.1
2017-02-05T11:08:37.238Z,5.24
2017-02-05T11:09:37.581Z,5.23
2017-02-05T11:10:37.570Z,5.42
2017-02-05T11:11:37.557Z,5.42
2017-02-05T11:12:37.543Z,5.55
2017-02-05T11:13:37.133Z,5.72
2017-02-05T11:14:37.127Z,5.75
2017-02-05T11:15:37.508Z,5.8
2017-02-05T11:16:36.697Z,5.89
2017-02-05T11:17:37.481Z,5.98
2017-02-05T11:18:37.468Z,6.13
2017-02-05T11:19:37.059Z,6.14
2017-02-05T11:20:37.445Z,6.31
2017-02-05T11:21:37.440Z,6.47
2017-02-05T11:22:37.024Z,6.55
2017-02-05T11:23:37.405Z,6.73
2017-02-05T11:24:37.396Z,6.73
2017-02-05T11:25:37.383Z,6.61
2017-02-05T11:26:36.977Z,6.52
2017-02-05T11:27:37.362Z,6.44
2017-02-05T11:28:37.354Z,6.43
2017-02-05T11:29:36.939Z,6.43
2017-02-05T11:30:37.327Z,6.42
2017-02-05T11:31:37.316Z,6.34
2017-02-05T11:32:37.304Z,6.33
2017-02-05T11:33:37.292Z,6.29
2017-02-05T11:34:37.280Z,6.25
2017-02-05T11:35:37.268Z,6.21
2017-02-05T11:36:37.256Z,6.15
2017-02-05T11:37:36.848Z,6.26
2017-02-05T11:38:36.834Z,6.14
2017-02-05T11:39:36.829Z,6.26
2017-02-05T11:40:36.816Z,6.36
2017-02-05T11:41:37.197Z,6.51
2017-02-05T11:42:37.191Z,6.54
2017-02-05T11:43:36.782Z,6.55
2017-02-05T11:44:37.171Z,6.6
2017-02-05T11:45:37.152Z,6.73
2017-02-05T11:46:37.141Z,6.65
2017-02-05T11:47:37.131Z,6.67
2017-02-05T11:48:37.126Z,6.64
2017-02-05T11:49:37.106Z,6.67
2017-02-05T11:50:37.098Z,6.7
2017-02-05T11:51:36.688Z,6.8
2017-02-05T11:52:37.079Z,6.79
2017-02-05T11:53:37.092Z,6.79
2017-02-05T11:54:37.051Z,6.78
2017-02-05T11:55:37.040Z,6.78
2017-02-05T11:56:37.030Z,6.65
2017-02-05T11:57:37.017Z,6.7
2017-02-05T11:58:37.014Z,6.67
2017-02-05T11:59:36.603Z,6.65
2017-02-05T12:00:36.589Z,6.6
2017-02-05T12:01:36.577Z,6.65
2017-02-05T12:02:36.567Z,6.68
2017-02-05T12:03:36.554Z,6.73
2017-02-05T12:04:36.941Z,6.85
2017-02-05T12:05:36.529Z,6.9
2017-02-05T12:06:36.523Z,7.08
2017-02-05T12:07:36.511Z,7.08
2017-02-05T12:08:36.898Z,7.03
2017-02-05T12:09:36.488Z,7.01
2017-02-05T12:10:36.476Z,6.88
2017-02-05T12:11:36.465Z,6.9
2017-02-05T12:12:36.454Z,6.82
2017-02-05T12:13:36.443Z,6.79
2017-02-05T12:14:36.829Z,6.72
2017-02-05T12:15:36.421Z,6.52
2017-02-05T12:16:36.013Z,6.47
2017-02-05T12:17:36.400Z,6.33
2017-02-05T12:18:36.783Z,6.34
2017-02-05T12:19:36.777Z,6.17
2017-02-05T12:20:36.763Z,6.15
2017-02-05T12:21:36.793Z,6.06
2017-02-05T12:22:36.737Z,5.89
2017-02-05T12:23:36.329Z,5.84
2017-02-05T12:24:36.715Z,5.62
2017-02-05T12:25:36.706Z,5.48
2017-02-05T12:26:36.293Z,5.42
2017-02-05T12:27:36.679Z,5.2
2017-02-05T12:28:36.667Z,5.23
2017-02-05T12:29:36.653Z,5.3
2017-02-05T12:30:36.648Z,5.33
2017-02-05T12:31:36.633Z,5.34
2017-02-05T12:32:36.624Z,5.41
2017-02-05T12:33:36.603Z,5.18
2017-02-05T12:34:36.592Z,5.15
2017-02-05T12:35:36.586Z,5.09
2017-02-05T12:36:36.571Z,5.02
2017-02-05T12:37:36.561Z,4.98
2017-02-05T12:38:36.153Z,5.09
2017-02-05T12:39:36.537Z,5.12
2017-02-05T12:40:36.523Z,5.13
2017-02-05T12:41:36.511Z,5.26
2017-02-05T12:42:36.498Z,5.13
2017-02-05T12:43:36.482Z,5.18
2017-02-05T12:44:36.473Z,5.15
2017-02-05T12:45:36.465Z,5.05
2017-02-05T12:46:36.446Z,5.05
2017-02-05T12:47:36.437Z,5.09
2017-02-05T12:48:36.419Z,5.15
2017-02-05T12:49:36.410Z,5.16
2017-02-05T12:50:36.397Z,5.15
2017-02-05T12:51:36.383Z,5.1
2017-02-05T12:52:36.375Z,5.09
2017-02-05T12:53:36.358Z,5.08
2017-02-05T12:54:36.344Z,5.08
2017-02-05T12:55:36.334Z,5
2017-02-05T12:56:36.317Z,4.95
2017-02-05T12:57:36.307Z,4.97
2017-02-05T12:58:36.295Z,5
2017-02-05T12:59:36.278Z,4.88
2017-02-05T13:00:35.876Z,4.91
2017-02-05T13:01:36.263Z,4.92
2017-02-05T13:02:35.843Z,5.1
2017-02-05T13:03:36.233Z,5.12
2017-02-05T13:04:36.217Z,5.16
2017-02-05T13:05:36.211Z,5.33
2017-02-05T13:06:35.795Z,5.39
2017-02-05T13:07:35.783Z,5.39
2017-02-05T13:08:35.768Z,5.44
2017-02-05T13:09:36.154Z,5.41
2017-02-05T13:10:36.140Z,5.39
2017-02-05T13:11:36.126Z,5.37
2017-02-05T13:12:35.718Z,5.49
2017-02-05T13:13:36.101Z,5.55
2017-02-05T13:14:36.094Z,5.57
2017-02-05T13:15:36.080Z,5.63
2017-02-05T13:16:36.063Z,5.67
2017-02-05T13:17:35.654Z,5.75
2017-02-05T13:18:36.044Z,5.75
2017-02-05T13:19:36.030Z,5.7
2017-02-05T13:20:36.013Z,5.63
2017-02-05T13:21:36.008Z,5.44